Ocontofalls, Wisconsin
Current Conditions -  °F | °C
As of 1:15 PM on Friday 28 Nov 2014 (Local Time) from KOCQ Reporting Station
Overcast Overcast  
Wind Chill: 12°   Ceiling: 5500
Heat Index: 19°   Visibility: 10mi
Dew Point: 15°   Wind: 5mph
Humidity: 88%   Direction: 140°SE
Pressure: 30.05"   Gusts: NA
Location:  44.8816°N, 88.1735°W
Report Text: KOCQ 281915Z AUTO 14004KT 10SM SCT046 OVC055 M07/M09 A3005 RMK AO1 T10751092
Loading
Personal Weather Stations






























Interactive Weather Map New forecast layout! Learn more

10-Day Weather Forecast

Advertisements
Track Severe Weather on mobile